createdAt,value
2019-02-18T00:00:12.744Z,8.40
2019-02-18T00:01:12.699Z,8.70
2019-02-18T00:02:12.677Z,8.10
2019-02-18T00:03:12.618Z,7.70
2019-02-18T00:04:12.594Z,8.20
2019-02-18T00:05:12.530Z,8.60
2019-02-18T00:06:12.488Z,8.80
2019-02-18T00:07:14.749Z,8.00
2019-02-18T00:08:12.416Z,8.90
2019-02-18T00:09:12.375Z,9.60
2019-02-18T00:10:12.308Z,9.90
2019-02-18T00:11:12.271Z,8.70
2019-02-18T00:12:12.234Z,8.00
2019-02-18T00:13:12.209Z,7.90
2019-02-18T00:14:12.144Z,8.60
2019-02-18T00:15:21.594Z,7.80
2019-02-18T00:16:12.084Z,8.50
2019-02-18T00:17:12.007Z,8.20
2019-02-18T00:18:11.963Z,8.30
2019-02-18T00:19:11.922Z,10.00
2019-02-18T00:20:11.882Z,9.20
2019-02-18T00:21:11.868Z,7.90
2019-02-18T00:22:11.798Z,8.80
2019-02-18T00:23:11.760Z,7.90
2019-02-18T00:24:11.721Z,8.70
2019-02-18T00:25:11.690Z,7.70
2019-02-18T00:26:11.618Z,8.00
2019-02-18T00:27:11.578Z,7.90
2019-02-18T00:28:11.538Z,8.70
2019-02-18T00:29:11.500Z,10.40
2019-02-18T00:30:11.455Z,8.80
2019-02-18T00:31:11.432Z,9.30
2019-02-18T00:32:11.364Z,10.10
2019-02-18T00:33:11.324Z,8.00
2019-02-18T00:34:11.280Z,8.90
2019-02-18T00:35:11.236Z,8.20
2019-02-18T00:36:11.216Z,8.90
2019-02-18T00:37:11.144Z,9.00
2019-02-18T00:38:11.126Z,8.30
2019-02-18T00:39:11.060Z,8.10
2019-02-18T00:40:11.012Z,8.30
2019-02-18T00:41:10.977Z,8.10
2019-02-18T00:42:10.940Z,7.90
2019-02-18T00:43:10.895Z,8.80
2019-02-18T00:44:10.870Z,9.80
2019-02-18T00:45:10.797Z,8.50
2019-02-18T00:46:10.754Z,8.30
2019-02-18T00:47:10.716Z,8.30
2019-02-18T00:48:10.675Z,8.80
2019-02-18T00:49:10.650Z,7.60
2019-02-18T00:50:10.583Z,7.90
2019-02-18T00:51:10.539Z,8.30
2019-02-18T00:52:10.516Z,7.90
2019-02-18T00:53:10.458Z,7.50
2019-02-18T00:54:10.415Z,8.20
2019-02-18T00:55:10.370Z,8.90
2019-02-18T00:56:10.333Z,8.20
2019-02-18T00:57:10.301Z,8.00
2019-02-18T00:58:10.237Z,7.70
2019-02-18T00:59:10.190Z,8.10
2019-02-18T01:00:10.150Z,8.90
2019-02-18T01:01:10.139Z,7.90
2019-02-18T01:02:10.070Z,8.70
2019-02-18T01:03:10.020Z,7.80
2019-02-18T01:04:09.974Z,8.00
2019-02-18T01:05:09.937Z,8.00
2019-02-18T01:06:09.890Z,9.00
2019-02-18T01:07:09.879Z,9.20
2019-02-18T01:08:09.806Z,9.20
2019-02-18T01:09:09.755Z,10.00
2019-02-18T01:10:09.712Z,8.50
2019-02-18T01:11:09.666Z,8.00
2019-02-18T01:12:09.625Z,8.00
2019-02-18T01:13:09.616Z,9.10
2019-02-18T01:14:09.543Z,8.50
2019-02-18T01:15:09.500Z,7.80
2019-02-18T01:16:09.455Z,8.00
2019-02-18T01:17:09.407Z,8.80
2019-02-18T01:18:09.386Z,7.50
2019-02-18T01:19:09.326Z,7.40
2019-02-18T01:20:09.279Z,7.90
2019-02-18T01:21:09.228Z,7.50
2019-02-18T01:22:09.185Z,8.90
2019-02-18T01:23:09.168Z,8.00
2019-02-18T01:24:09.126Z,8.20
2019-02-18T01:25:09.072Z,8.60
2019-02-18T01:26:09.016Z,8.00
2019-02-18T01:27:08.975Z,8.80
2019-02-18T01:28:08.928Z,8.70
2019-02-18T01:29:08.903Z,7.90
2019-02-18T01:30:08.839Z,8.00
2019-02-18T01:31:08.796Z,8.70
2019-02-18T01:32:08.785Z,8.00
2019-02-18T01:33:08.709Z,8.70
2019-02-18T01:34:08.688Z,8.50
2019-02-18T01:35:08.635Z,8.00
2019-02-18T01:36:08.569Z,8.60
2019-02-18T01:37:08.535Z,8.20
2019-02-18T01:38:08.487Z,8.80
2019-02-18T01:39:08.444Z,8.00
2019-02-18T01:40:08.424Z,8.10
2019-02-18T01:41:08.374Z,9.00
2019-02-18T01:42:08.306Z,9.30
2019-02-18T01:43:08.261Z,8.70
2019-02-18T01:44:08.215Z,8.20
2019-02-18T01:45:08.206Z,8.10
2019-02-18T01:46:08.137Z,9.00
2019-02-18T01:47:08.092Z,8.10
2019-02-18T01:48:08.046Z,8.60
2019-02-18T01:49:07.992Z,8.70
2019-02-18T01:50:07.969Z,7.80
2019-02-18T01:51:07.936Z,8.30
2019-02-18T01:52:07.869Z,7.80
2019-02-18T01:53:07.814Z,9.00
2019-02-18T01:54:07.770Z,8.60
2019-02-18T01:55:07.731Z,8.40
2019-02-18T01:56:07.687Z,8.20
2019-02-18T01:57:07.671Z,8.50
2019-02-18T01:58:07.600Z,8.80
2019-02-18T01:59:07.556Z,7.90
2019-02-18T02:00:07.511Z,8.80
2019-02-18T02:01:07.460Z,8.90
2019-02-18T02:02:07.419Z,9.70
2019-02-18T02:03:07.391Z,8.30
2019-02-18T02:04:07.323Z,9.20
2019-02-18T02:05:07.306Z,8.30
2019-02-18T02:06:07.265Z,8.00
2019-02-18T02:07:07.191Z,8.40
2019-02-18T02:08:07.169Z,8.30
2019-02-18T02:09:07.108Z,8.30
2019-02-18T02:10:07.061Z,8.40
2019-02-18T02:11:07.017Z,9.30
2019-02-18T02:12:06.974Z,8.40
2019-02-18T02:13:06.945Z,8.30
2019-02-18T02:14:06.877Z,8.20
2019-02-18T02:15:06.833Z,8.50
2019-02-18T02:16:06.788Z,7.80
2019-02-18T02:17:06.771Z,8.00
2019-02-18T02:18:06.705Z,8.30
2019-02-18T02:19:06.686Z,8.80
2019-02-18T02:20:06.612Z,11.20
2019-02-18T02:21:06.559Z,8.10
2019-02-18T02:22:06.517Z,8.80
2019-02-18T02:23:06.481Z,7.90
2019-02-18T02:24:06.461Z,8.10
2019-02-18T02:25:06.381Z,9.20
2019-02-18T02:26:06.337Z,9.90
2019-02-18T02:27:06.289Z,8.30
2019-02-18T02:28:06.247Z,9.00
2019-02-18T02:29:06.208Z,9.30
2019-02-18T02:30:06.197Z,8.40
2019-02-18T02:31:06.120Z,9.50
2019-02-18T02:32:06.071Z,11.00
2019-02-18T02:33:06.044Z,10.30
2019-02-18T02:34:05.976Z,9.30
2019-02-18T02:35:05.932Z,8.30
2019-02-18T02:36:05.889Z,8.00
2019-02-18T02:37:05.861Z,8.80
2019-02-18T02:38:07.986Z,10.60
2019-02-18T02:39:05.751Z,9.10
2019-02-18T02:40:05.707Z,9.80
2019-02-18T02:41:05.662Z,10.00
2019-02-18T02:42:05.621Z,9.30
2019-02-18T02:43:05.605Z,9.50
2019-02-18T02:44:05.533Z,8.60
2019-02-18T02:45:05.476Z,10.20
2019-02-18T02:46:05.435Z,8.80
2019-02-18T02:47:05.387Z,8.60
2019-02-18T02:48:05.351Z,9.40
2019-02-18T02:49:05.331Z,9.50
2019-02-18T02:50:05.263Z,9.90
2019-02-18T02:51:05.213Z,8.70
2019-02-18T02:52:05.169Z,8.70
2019-02-18T02:53:05.120Z,8.20
2019-02-18T02:54:05.072Z,9.70
2019-02-18T02:55:05.068Z,9.50
2019-02-18T02:56:05.002Z,8.60
2019-02-18T02:57:04.951Z,8.90
2019-02-18T02:58:04.895Z,8.70
2019-02-18T02:59:04.875Z,8.50
2019-02-18T03:00:04.798Z,8.70
2019-02-18T03:01:04.765Z,8.90
2019-02-18T03:02:04.714Z,9.90
2019-02-18T03:03:04.673Z,8.20
2019-02-18T03:04:04.627Z,8.40
2019-02-18T03:05:04.596Z,9.30
2019-02-18T03:06:04.528Z,10.50
2019-02-18T03:07:04.482Z,9.20
2019-02-18T03:08:04.442Z,8.90
2019-02-18T03:09:04.400Z,8.40
2019-02-18T03:10:04.373Z,8.10
2019-02-18T03:11:04.301Z,9.00
2019-02-18T03:12:04.253Z,8.30
2019-02-18T03:13:04.220Z,8.80
2019-02-18T03:14:04.170Z,9.00
2019-02-18T03:15:04.152Z,7.90
2019-02-18T03:16:04.078Z,10.10
2019-02-18T03:17:04.028Z,8.80
2019-02-18T03:18:03.979Z,8.90
2019-02-18T03:19:03.935Z,8.50
2019-02-18T03:20:03.888Z,9.60
2019-02-18T03:21:03.872Z,9.30
2019-02-18T03:22:03.803Z,8.80
2019-02-18T03:23:03.765Z,8.50
2019-02-18T03:24:03.713Z,8.70
2019-02-18T03:25:03.661Z,10.00
2019-02-18T03:26:03.647Z,8.40
2019-02-18T03:27:03.599Z,8.80
2019-02-18T03:28:03.534Z,9.00
2019-02-18T03:29:03.484Z,9.30
2019-02-18T03:30:03.441Z,9.10
2019-02-18T03:31:03.542Z,8.80
2019-02-18T03:32:03.345Z,10.00
2019-02-18T03:33:03.320Z,8.40
2019-02-18T03:34:03.261Z,9.00
2019-02-18T03:35:03.215Z,8.60
2019-02-18T03:36:03.167Z,9.30
2019-02-18T03:37:03.145Z,9.40
2019-02-18T03:38:03.067Z,8.50
2019-02-18T03:39:03.026Z,9.40
2019-02-18T03:40:02.978Z,8.10
2019-02-18T03:41:03.637Z,9.40
2019-02-18T03:42:02.922Z,9.00
2019-02-18T03:43:02.839Z,8.90
2019-02-18T03:44:02.794Z,9.80
2019-02-18T03:45:02.757Z,9.30
2019-02-18T03:46:02.714Z,8.70
2019-02-18T03:47:02.663Z,8.50
2019-02-18T03:48:02.646Z,9.10
2019-02-18T03:49:02.563Z,9.00
2019-02-18T03:50:02.518Z,8.10
2019-02-18T03:51:02.484Z,8.20
2019-02-18T03:52:02.456Z,9.40
2019-02-18T03:53:02.407Z,8.70
2019-02-18T03:54:02.334Z,8.70
2019-02-18T03:55:02.293Z,9.30
2019-02-18T03:56:02.250Z,9.10
2019-02-18T03:57:02.206Z,8.70
2019-02-18T03:58:02.192Z,9.00
2019-02-18T03:59:02.108Z,8.50
2019-02-18T04:00:02.066Z,9.20
2019-02-18T04:01:02.024Z,8.10
2019-02-18T04:02:01.983Z,9.30
2019-02-18T04:03:01.931Z,9.20
2019-02-18T04:04:01.908Z,8.80
2019-02-18T04:05:01.836Z,10.00
2019-02-18T04:06:01.787Z,9.70
2019-02-18T04:07:01.741Z,8.90
2019-02-18T04:08:01.693Z,9.20
2019-02-18T04:09:01.678Z,9.10
2019-02-18T04:10:01.612Z,9.20
2019-02-18T04:11:01.563Z,9.00
2019-02-18T04:12:01.518Z,9.40
2019-02-18T04:13:01.471Z,11.00
2019-02-18T04:14:01.439Z,9.10
2019-02-18T04:15:01.380Z,9.60
2019-02-18T04:16:01.334Z,9.90
2019-02-18T04:17:01.301Z,9.20
2019-02-18T04:18:01.237Z,10.20
2019-02-18T04:19:01.221Z,10.20
2019-02-18T04:20:01.151Z,8.80
2019-02-18T04:21:01.103Z,9.70
2019-02-18T04:22:01.060Z,8.70
2019-02-18T04:23:01.016Z,8.80
2019-02-18T04:24:00.966Z,9.90
2019-02-18T04:25:00.934Z,9.60
2019-02-18T04:26:00.867Z,9.20
2019-02-18T04:27:00.821Z,8.70
2019-02-18T04:28:00.776Z,10.40
2019-02-18T04:29:00.737Z,8.90
2019-02-18T04:30:00.711Z,9.10
2019-02-18T04:31:00.638Z,9.10
2019-02-18T04:32:00.590Z,8.30
2019-02-18T04:33:00.549Z,9.50
2019-02-18T04:34:00.508Z,8.90
2019-02-18T04:35:00.482Z,8.90
2019-02-18T04:36:00.439Z,9.10
2019-02-18T04:37:00.361Z,8.70
2019-02-18T04:38:00.315Z,10.20
2019-02-18T04:39:00.269Z,9.40
2019-02-18T04:40:00.432Z,8.90
2019-02-18T04:41:00.206Z,9.00
2019-02-18T04:42:00.141Z,9.90
2019-02-18T04:43:00.097Z,9.10
2019-02-18T04:44:00.050Z,9.60
2019-02-18T04:44:59.991Z,10.60
2019-02-18T04:45:59.973Z,10.60
2019-02-18T04:46:59.905Z,9.30
2019-02-18T04:47:59.861Z,9.50
2019-02-18T04:48:59.812Z,8.40
2019-02-18T04:49:59.764Z,8.70
2019-02-18T04:50:59.740Z,8.70
2019-02-18T04:51:59.694Z,8.10
2019-02-18T04:52:59.633Z,8.90
2019-02-18T04:53:59.591Z,8.60
2019-02-18T04:54:59.540Z,9.30
2019-02-18T04:55:59.492Z,9.10
2019-02-18T04:56:59.461Z,9.20
2019-02-18T04:57:59.389Z,8.90
2019-02-18T04:58:59.347Z,9.20
2019-02-18T04:59:59.303Z,9.30
2019-02-18T05:00:59.262Z,9.90
2019-02-18T05:01:59.238Z,8.90
2019-02-18T05:02:59.163Z,8.80
2019-02-18T05:03:59.113Z,9.10
2019-02-18T05:04:59.073Z,9.30
2019-02-18T05:05:59.040Z,8.30
2019-02-18T05:06:59.021Z,10.00
2019-02-18T05:07:58.934Z,9.90
2019-02-18T05:09:05.318Z,9.90
2019-02-18T05:09:58.837Z,9.70
2019-02-18T05:10:58.794Z,8.80
2019-02-18T05:11:58.745Z,9.10
2019-02-18T05:12:58.736Z,9.00
2019-02-18T05:13:58.658Z,9.50
2019-02-18T05:14:58.614Z,10.10
2019-02-18T05:15:58.567Z,10.00
2019-02-18T05:16:58.514Z,9.60
2019-02-18T05:17:58.488Z,10.60
2019-02-18T05:18:58.427Z,10.10
2019-02-18T05:19:58.383Z,8.90
2019-02-18T05:20:58.329Z,8.80
2019-02-18T05:21:58.305Z,10.30
2019-02-18T05:22:59.070Z,9.50
2019-02-18T05:23:58.194Z,9.70
2019-02-18T05:24:58.150Z,10.70
2019-02-18T05:25:58.102Z,11.30
2019-02-18T05:26:58.055Z,9.90
2019-02-18T05:27:58.009Z,9.00
2019-02-18T05:28:57.982Z,9.80
2019-02-18T05:29:57.926Z,10.20
2019-02-18T05:30:57.866Z,12.90
2019-02-18T05:31:57.815Z,11.10
2019-02-18T05:32:57.779Z,9.50
2019-02-18T05:33:57.755Z,10.90
2019-02-18T05:34:57.685Z,10.10
2019-02-18T05:35:57.633Z,10.90
2019-02-18T05:36:57.595Z,10.10
2019-02-18T05:37:57.548Z,11.20
2019-02-18T05:38:57.526Z,10.10
2019-02-18T05:39:57.458Z,10.60
2019-02-18T05:40:57.399Z,11.10
2019-02-18T05:41:57.354Z,9.50
2019-02-18T05:42:57.306Z,10.50
2019-02-18T05:43:57.259Z,11.80
2019-02-18T05:44:57.247Z,11.20
2019-02-18T05:45:57.176Z,11.20
2019-02-18T05:46:57.129Z,12.10
2019-02-18T05:47:57.083Z,11.80
2019-02-18T05:48:57.026Z,12.20
2019-02-18T05:49:57.014Z,10.20
2019-02-18T05:50:56.946Z,11.80
2019-02-18T05:51:56.897Z,11.40
2019-02-18T05:52:56.843Z,12.10
2019-02-18T05:53:56.797Z,12.50
2019-02-18T05:54:56.774Z,12.40
2019-02-18T05:55:56.732Z,12.40
2019-02-18T05:56:56.754Z,13.00
2019-02-18T05:57:56.620Z,12.90
2019-02-18T05:58:56.571Z,14.80
2019-02-18T05:59:56.553Z,12.20
2019-02-18T06:00:56.470Z,14.80
2019-02-18T06:01:56.424Z,12.50
2019-02-18T06:02:56.375Z,11.90
2019-02-18T06:03:56.331Z,13.90
2019-02-18T06:04:56.329Z,11.80
2019-02-18T06:05:56.266Z,12.20
2019-02-18T06:06:56.193Z,12.80
2019-02-18T06:07:56.147Z,10.50
2019-02-18T06:08:56.109Z,11.50
2019-02-18T06:09:56.063Z,11.80
2019-02-18T06:10:56.040Z,13.60
2019-02-18T06:11:55.967Z,11.70
2019-02-18T06:12:55.916Z,11.80
2019-02-18T06:13:55.871Z,11.30
2019-02-18T06:14:55.841Z,11.10
2019-02-18T06:15:55.777Z,11.30
2019-02-18T06:16:55.759Z,12.70
2019-02-18T06:17:55.687Z,11.80
2019-02-18T06:18:55.637Z,11.20
2019-02-18T06:19:55.594Z,11.70
2019-02-18T06:20:55.566Z,12.00
2019-02-18T06:21:55.520Z,12.30
2019-02-18T06:22:55.455Z,11.50
2019-02-18T06:23:55.408Z,10.60
2019-02-18T06:24:55.352Z,10.70
2019-02-18T06:25:55.307Z,11.60
2019-02-18T06:26:55.263Z,12.10
2019-02-18T06:27:55.237Z,11.70
2019-02-18T06:28:55.182Z,10.10
2019-02-18T06:29:55.127Z,11.30
2019-02-18T06:30:55.124Z,11.60
2019-02-18T06:31:55.061Z,13.00
2019-02-18T06:32:54.983Z,11.20
2019-02-18T06:33:54.943Z,10.30
2019-02-18T06:34:54.898Z,10.90
2019-02-18T06:35:54.841Z,11.30
2019-02-18T06:36:54.802Z,12.20
2019-02-18T06:37:54.777Z,12.20
2019-02-18T06:38:54.706Z,11.80
2019-02-18T06:39:54.658Z,14.20
2019-02-18T06:40:54.619Z,13.20
2019-02-18T06:41:54.569Z,13.20
2019-02-18T06:42:54.547Z,12.90
2019-02-18T06:43:54.480Z,16.00
2019-02-18T06:44:54.422Z,12.60
2019-02-18T06:45:54.379Z,11.90
2019-02-18T06:46:54.328Z,10.50
2019-02-18T06:47:54.309Z,10.80
2019-02-18T06:48:54.243Z,10.70
2019-02-18T06:49:54.197Z,11.10
2019-02-18T06:50:54.157Z,11.10
2019-02-18T06:51:54.146Z,10.20
2019-02-18T06:52:54.051Z,9.90
2019-02-18T06:53:54.026Z,9.20
2019-02-18T06:54:53.969Z,9.60
2019-02-18T06:55:53.919Z,10.50
2019-02-18T06:56:53.865Z,10.60
2019-02-18T06:57:53.819Z,11.80
2019-02-18T06:58:53.803Z,9.50
2019-02-18T06:59:53.728Z,8.90
2019-02-18T07:00:53.694Z,9.80
2019-02-18T07:01:53.646Z,9.10
2019-02-18T07:02:53.600Z,9.30
2019-02-18T07:03:53.625Z,9.20
2019-02-18T07:04:53.716Z,13.10
2019-02-18T07:05:53.463Z,11.70
2019-02-18T07:06:53.435Z,12.00
2019-02-18T07:07:53.367Z,11.40
2019-02-18T07:08:53.322Z,11.10
2019-02-18T07:09:53.304Z,8.70
2019-02-18T07:10:53.345Z,9.30
2019-02-18T07:11:53.193Z,9.80
2019-02-18T07:12:53.141Z,8.70
2019-02-18T07:13:53.099Z,10.80
2019-02-18T07:14:53.328Z,8.20
2019-02-18T07:15:53.173Z,9.70
2019-02-18T07:16:53.157Z,9.50
2019-02-18T07:17:52.910Z,8.30
2019-02-18T07:18:52.863Z,8.80
2019-02-18T07:19:52.848Z,9.30
2019-02-18T07:20:52.784Z,8.60
2019-02-18T07:21:52.737Z,8.90
2019-02-18T07:22:52.889Z,8.10
2019-02-18T07:23:52.649Z,7.90
2019-02-18T07:24:52.596Z,8.80
2019-02-18T07:25:52.584Z,8.80
2019-02-18T07:26:52.515Z,8.40
2019-02-18T07:27:52.474Z,8.20
2019-02-18T07:28:52.422Z,9.80
2019-02-18T07:29:52.382Z,7.20
2019-02-18T07:30:52.336Z,7.70
2019-02-18T07:31:52.323Z,7.70
2019-02-18T07:32:52.255Z,8.30
2019-02-18T07:33:52.296Z,8.00
2019-02-18T07:34:52.330Z,8.40
2019-02-18T07:35:52.171Z,8.40
2019-02-18T07:36:52.321Z,8.30
2019-02-18T07:37:52.064Z,7.40
2019-02-18T07:38:52.115Z,7.70
2019-02-18T07:40:01.122Z,8.30
2019-02-18T07:40:51.970Z,7.10
2019-02-18T07:41:52.050Z,7.70
2019-02-18T07:42:51.827Z,7.80
2019-02-18T07:43:51.790Z,8.50
2019-02-18T07:44:51.763Z,7.60
2019-02-18T07:45:51.877Z,9.30
2019-02-18T07:46:51.699Z,8.10
2019-02-18T07:47:51.655Z,8.20
2019-02-18T07:48:51.582Z,7.60
2019-02-18T07:49:51.547Z,8.00
2019-02-18T07:50:51.532Z,8.00
2019-02-18T07:51:51.461Z,8.90
2019-02-18T07:52:51.447Z,8.20
2019-02-18T07:53:51.384Z,7.90
2019-02-18T07:54:51.349Z,8.80
2019-02-18T07:55:51.307Z,10.10
2019-02-18T07:56:51.280Z,7.70
2019-02-18T07:57:51.246Z,8.20
2019-02-18T07:58:51.218Z,9.40
2019-02-18T07:59:51.147Z,7.30
2019-02-18T08:00:51.098Z,8.70
2019-02-18T08:01:51.062Z,8.20
2019-02-18T08:02:51.026Z,9.30
2019-02-18T08:03:51.013Z,8.20
2019-02-18T08:04:50.949Z,9.30
2019-02-18T08:05:50.909Z,9.10
2019-02-18T08:06:50.869Z,9.10
2019-02-18T08:07:50.938Z,8.20
2019-02-18T08:08:50.790Z,9.00
2019-02-18T08:09:50.837Z,8.80
2019-02-18T08:10:50.713Z,8.30
2019-02-18T08:11:50.677Z,9.20
2019-02-18T08:12:50.721Z,8.10
2019-02-18T08:13:50.613Z,8.80
2019-02-18T08:14:50.615Z,9.50
2019-02-18T08:15:50.608Z,8.20
2019-02-18T08:16:50.585Z,7.30
2019-02-18T08:17:50.447Z,9.00
2019-02-18T08:18:50.520Z,9.00
2019-02-18T08:19:50.376Z,8.30
2019-02-18T08:20:50.413Z,8.20
2019-02-18T08:21:50.369Z,7.40
2019-02-18T08:22:50.248Z,8.40
2019-02-18T08:23:59.423Z,8.30
2019-02-18T08:24:50.181Z,8.30
2019-02-18T08:25:50.163Z,8.00
2019-02-18T08:26:50.100Z,8.70
2019-02-18T08:27:50.060Z,8.20
2019-02-18T08:28:50.036Z,7.40
2019-02-18T08:29:49.975Z,7.90
2019-02-18T08:30:49.949Z,8.40
2019-02-18T08:31:49.907Z,7.70
2019-02-18T08:32:49.873Z,7.50
2019-02-18T08:33:49.849Z,8.20
2019-02-18T08:34:49.809Z,9.40
2019-02-18T08:35:49.749Z,8.00
2019-02-18T08:36:49.718Z,9.40
2019-02-18T08:37:49.678Z,7.60
2019-02-18T08:38:49.681Z,8.00
2019-02-18T08:39:49.606Z,8.60
2019-02-18T08:40:49.561Z,12.30
2019-02-18T08:41:49.523Z,7.60
2019-02-18T08:42:49.488Z,9.30
2019-02-18T08:43:49.531Z,8.90
2019-02-18T08:44:49.448Z,7.90
2019-02-18T08:45:49.399Z,9.60
2019-02-18T08:46:49.343Z,8.70
2019-02-18T08:47:49.317Z,7.60
2019-02-18T08:48:49.274Z,7.80
2019-02-18T08:49:49.254Z,9.10
2019-02-18T08:50:49.200Z,7.70
2019-02-18T08:51:49.161Z,9.00
2019-02-18T08:52:49.124Z,8.20
2019-02-18T08:53:49.079Z,8.70
2019-02-18T08:54:56.206Z,9.40
2019-02-18T08:55:49.007Z,9.00
2019-02-18T08:56:48.976Z,8.30
2019-02-18T08:57:48.940Z,8.30
2019-02-18T08:58:48.911Z,8.30
2019-02-18T08:59:48.894Z,8.40
2019-02-18T09:00:48.826Z,8.30
2019-02-18T09:01:48.805Z,10.30
2019-02-18T09:02:48.758Z,8.30
2019-02-18T09:03:48.723Z,8.40
2019-02-18T09:04:48.677Z,10.10
2019-02-18T09:05:48.666Z,9.00
2019-02-18T09:06:48.602Z,9.60
2019-02-18T09:07:48.565Z,9.00
2019-02-18T09:08:48.535Z,8.80
2019-02-18T09:09:48.505Z,8.40
2019-02-18T09:10:48.493Z,8.50
2019-02-18T09:11:48.431Z,8.20
2019-02-18T09:12:48.387Z,9.50
2019-02-18T09:13:48.348Z,8.90
2019-02-18T09:14:48.313Z,9.00
2019-02-18T09:15:48.277Z,10.10
2019-02-18T09:16:48.276Z,8.20
2019-02-18T09:17:48.213Z,10.40
2019-02-18T09:18:48.171Z,9.00
2019-02-18T09:19:48.135Z,10.10
2019-02-18T09:20:48.104Z,9.10
2019-02-18T09:21:48.092Z,8.60
2019-02-18T09:22:48.034Z,9.80
2019-02-18T09:23:48.027Z,10.50
2019-02-18T09:24:47.959Z,9.00
2019-02-18T09:25:47.974Z,9.20
2019-02-18T09:26:47.976Z,9.00
2019-02-18T09:27:47.890Z,9.10
2019-02-18T09:28:47.825Z,10.30
2019-02-18T09:29:47.972Z,10.50
2019-02-18T09:30:47.750Z,8.60
2019-02-18T09:31:47.717Z,8.40
2019-02-18T09:32:47.796Z,10.60
2019-02-18T09:33:47.822Z,9.50
2019-02-18T09:34:53.155Z,8.00
2019-02-18T09:35:47.576Z,9.10
2019-02-18T09:36:47.531Z,8.20
2019-02-18T09:37:47.522Z,8.70
2019-02-18T09:38:47.464Z,9.50
2019-02-18T09:39:47.428Z,8.50
2019-02-18T09:40:51.421Z,8.90
2019-02-18T09:41:47.447Z,8.40
2019-02-18T09:42:47.416Z,9.00
2019-02-18T09:43:47.376Z,9.20
2019-02-18T09:44:47.258Z,7.90
2019-02-18T09:45:47.232Z,8.20
2019-02-18T09:46:47.219Z,9.00
2019-02-18T09:47:47.155Z,8.40
2019-02-18T09:48:47.148Z,8.60
2019-02-18T09:49:47.092Z,12.60
2019-02-18T09:50:47.086Z,10.50
2019-02-18T09:51:47.019Z,10.20
2019-02-18T09:52:46.988Z,8.60
2019-02-18T09:53:46.989Z,9.70
2019-02-18T09:54:46.923Z,9.00
2019-02-18T09:55:46.890Z,9.60
2019-02-18T09:56:46.847Z,9.50
2019-02-18T09:57:46.821Z,8.70
2019-02-18T09:58:46.805Z,7.40
2019-02-18T09:59:46.742Z,9.50
2019-02-18T10:00:46.850Z,8.40
2019-02-18T10:01:46.682Z,8.80
2019-02-18T10:02:46.652Z,8.70
2019-02-18T10:03:46.612Z,8.10
2019-02-18T10:04:46.594Z,7.80
2019-02-18T10:05:46.542Z,8.20
2019-02-18T10:06:46.513Z,9.50
2019-02-18T10:07:46.478Z,8.90
2019-02-18T10:08:46.477Z,9.80
2019-02-18T10:09:46.413Z,9.20
2019-02-18T10:10:55.468Z,8.60
2019-02-18T10:11:46.361Z,8.80
2019-02-18T10:12:46.311Z,11.20
2019-02-18T10:13:46.295Z,9.40
2019-02-18T10:14:46.237Z,9.40
2019-02-18T10:15:46.201Z,9.90
2019-02-18T10:16:46.163Z,9.60
2019-02-18T10:17:46.164Z,8.50
2019-02-18T10:18:46.115Z,10.10
2019-02-18T10:19:46.056Z,10.30
2019-02-18T10:20:46.033Z,8.50
2019-02-18T10:21:45.998Z,9.10
2019-02-18T10:22:45.956Z,9.00
2019-02-18T10:23:45.921Z,8.30
2019-02-18T10:24:50.592Z,9.40
2019-02-18T10:25:45.855Z,8.80
2019-02-18T10:26:45.820Z,10.60
2019-02-18T10:27:45.781Z,10.80
2019-02-18T10:28:45.768Z,9.50
2019-02-18T10:29:45.707Z,8.30
2019-02-18T10:30:45.727Z,8.70
2019-02-18T10:31:45.640Z,9.90
2019-02-18T10:32:45.610Z,8.50
2019-02-18T10:33:45.570Z,9.00
2019-02-18T10:34:45.561Z,10.30
2019-02-18T10:35:45.502Z,9.60
2019-02-18T10:36:45.460Z,9.30
2019-02-18T10:37:54.655Z,9.50
2019-02-18T10:38:45.394Z,9.90
2019-02-18T10:39:45.362Z,9.10
2019-02-18T10:40:45.345Z,9.20
2019-02-18T10:41:45.286Z,9.10
2019-02-18T10:42:45.247Z,8.50
2019-02-18T10:43:45.214Z,10.40
2019-02-18T10:44:45.197Z,9.50
2019-02-18T10:45:45.147Z,8.20
2019-02-18T10:46:45.144Z,9.50
2019-02-18T10:47:45.078Z,9.00
2019-02-18T10:48:45.039Z,9.20
2019-02-18T10:49:45.013Z,8.80
2019-02-18T10:50:44.971Z,8.10
2019-02-18T10:51:44.934Z,9.10
2019-02-18T10:52:44.933Z,7.90
2019-02-18T10:53:44.877Z,10.20
2019-02-18T10:54:44.840Z,9.30
2019-02-18T10:55:44.802Z,9.30
2019-02-18T10:56:44.795Z,9.40
2019-02-18T10:57:44.737Z,8.80
2019-02-18T10:58:44.699Z,9.10
2019-02-18T10:59:44.667Z,8.90
2019-02-18T11:00:44.626Z,9.50
2019-02-18T11:01:44.615Z,8.50
2019-02-18T11:02:44.562Z,9.10
2019-02-18T11:03:44.523Z,10.70
2019-02-18T11:04:44.493Z,9.10
2019-02-18T11:05:44.460Z,10.30
2019-02-18T11:06:44.450Z,8.40
2019-02-18T11:07:44.396Z,8.00
2019-02-18T11:08:44.357Z,10.00
2019-02-18T11:09:44.317Z,9.00
2019-02-18T11:10:44.290Z,8.70
2019-02-18T11:11:44.293Z,9.50
2019-02-18T11:12:44.240Z,9.20
2019-02-18T11:13:44.205Z,8.00
2019-02-18T11:14:44.151Z,8.50
2019-02-18T11:15:44.116Z,9.00
2019-02-18T11:16:44.088Z,8.70
2019-02-18T11:17:44.078Z,9.50
2019-02-18T11:18:44.044Z,8.10
2019-02-18T11:19:44.010Z,8.90
2019-02-18T11:20:43.948Z,7.60
2019-02-18T11:21:43.914Z,8.00
2019-02-18T11:22:43.986Z,9.90
2019-02-18T11:23:43.849Z,9.40
2019-02-18T11:24:43.820Z,9.90
2019-02-18T11:25:43.788Z,8.60
2019-02-18T11:26:43.749Z,8.50
2019-02-18T11:27:43.819Z,8.00
2019-02-18T11:28:43.688Z,9.00
2019-02-18T11:29:43.653Z,8.50
2019-02-18T11:30:43.622Z,10.20
2019-02-18T11:31:43.591Z,8.00
2019-02-18T11:32:43.573Z,10.90
2019-02-18T11:33:43.537Z,9.40
2019-02-18T11:34:43.503Z,9.90
2019-02-18T11:35:43.448Z,8.80
2019-02-18T11:36:43.421Z,8.50
2019-02-18T11:37:43.388Z,9.00
2019-02-18T11:38:43.357Z,8.00
2019-02-18T11:39:43.345Z,8.60
2019-02-18T11:40:43.281Z,7.70
2019-02-18T11:41:43.248Z,9.70
2019-02-18T11:42:43.251Z,9.20
2019-02-18T11:43:43.190Z,8.00
2019-02-18T11:44:43.149Z,8.40
2019-02-18T11:45:43.118Z,7.30
2019-02-18T11:46:43.103Z,8.30
2019-02-18T11:47:43.050Z,8.00
2019-02-18T11:48:43.048Z,9.80
2019-02-18T11:49:43.013Z,9.00
2019-02-18T11:50:42.956Z,8.30
2019-02-18T11:51:42.927Z,10.10
2019-02-18T11:52:42.886Z,8.50
2019-02-18T11:53:42.878Z,8.00
2019-02-18T11:54:42.825Z,7.90
2019-02-18T11:55:42.813Z,8.60
2019-02-18T11:56:42.755Z,9.40
2019-02-18T11:57:42.725Z,8.70
2019-02-18T11:58:42.708Z,9.60
2019-02-18T11:59:42.651Z,8.60
2019-02-18T12:00:42.625Z,9.40
2019-02-18T12:01:42.592Z,9.20
2019-02-18T12:02:42.561Z,9.20
2019-02-18T12:03:42.549Z,9.90
2019-02-18T12:04:42.483Z,8.10
2019-02-18T12:05:42.453Z,10.00
2019-02-18T12:06:44.542Z,10.80
2019-02-18T12:07:42.384Z,9.20
2019-02-18T12:08:42.364Z,10.30
2019-02-18T12:09:42.353Z,10.60
2019-02-18T12:10:42.297Z,9.30
2019-02-18T12:11:42.262Z,10.40
2019-02-18T12:12:42.218Z,10.60
2019-02-18T12:13:42.188Z,9.00
2019-02-18T12:14:42.195Z,11.10
2019-02-18T12:15:42.129Z,9.30
2019-02-18T12:16:42.091Z,9.30
2019-02-18T12:17:42.059Z,9.50
2019-02-18T12:18:42.021Z,10.40
2019-02-18T12:19:41.986Z,8.30
2019-02-18T12:20:41.988Z,8.50
2019-02-18T12:21:41.932Z,9.80
2019-02-18T12:22:41.892Z,10.20
2019-02-18T12:23:41.857Z,10.30
2019-02-18T12:24:41.831Z,9.70
2019-02-18T12:25:41.827Z,10.50
2019-02-18T12:26:41.768Z,10.10
2019-02-18T12:27:41.736Z,11.10
2019-02-18T12:28:41.697Z,9.20
2019-02-18T12:29:41.660Z,9.90
2019-02-18T12:30:41.635Z,11.20
2019-02-18T12:31:41.627Z,9.00
2019-02-18T12:32:41.562Z,9.20
2019-02-18T12:33:41.531Z,10.00
2019-02-18T12:34:41.498Z,9.10
2019-02-18T12:35:41.488Z,8.70
2019-02-18T12:36:41.461Z,10.90
2019-02-18T12:37:41.411Z,9.20
2019-02-18T12:38:41.377Z,9.00
2019-02-18T12:39:41.345Z,8.80
2019-02-18T12:40:41.323Z,9.50
2019-02-18T12:41:48.302Z,9.60
2019-02-18T12:42:42.377Z,9.00
2019-02-18T12:43:41.204Z,9.40
2019-02-18T12:44:41.179Z,8.60
2019-02-18T12:45:41.146Z,9.50
2019-02-18T12:46:41.129Z,10.00
2019-02-18T12:47:41.069Z,9.00
2019-02-18T12:48:41.041Z,9.30
2019-02-18T12:49:41.013Z,9.40
2019-02-18T12:50:40.977Z,8.60
2019-02-18T12:51:40.994Z,9.00
2019-02-18T12:52:40.901Z,10.20
2019-02-18T12:53:40.877Z,9.30
2019-02-18T12:54:40.840Z,9.90
2019-02-18T12:55:40.805Z,9.70
2019-02-18T12:56:40.803Z,9.80
2019-02-18T12:57:40.740Z,10.10
2019-02-18T12:58:40.709Z,10.60
2019-02-18T12:59:40.753Z,9.30
2019-02-18T13:00:40.638Z,9.40
2019-02-18T13:01:40.624Z,8.80
2019-02-18T13:02:44.134Z,9.70
2019-02-18T13:03:40.541Z,8.90
2019-02-18T13:04:40.497Z,10.00
2019-02-18T13:05:40.463Z,10.10
2019-02-18T13:06:40.433Z,10.70
2019-02-18T13:07:40.442Z,9.10
2019-02-18T13:08:40.396Z,9.40
2019-02-18T13:09:40.340Z,10.40
2019-02-18T13:10:40.303Z,9.80
2019-02-18T13:11:40.272Z,9.50